Time;durP1;ratioP1;P1;durP2;ratioP2;P2;SDS_P1;SDS_P2;PMS_P1;PMS_P2;Temp;Humidity;BMP_temperature;BMP_pressure;BME280_temperature;BME280_humidity;BME280_pressure;Samples;Min_cycle;Max_cycle;Signal;HPM_P1;HPM_P2
2023/05/12 00:00:17;;;;;;;46.42;29.40;;;;;;;11.15;100.00;67993.63;5071182;28;20052;-58
2023/05/12 00:02:43;;;;;;;48.47;25.88;;;;;;;11.19;100.00;67651.75;5072203;28;20046;-58
2023/05/12 00:05:08;;;;;;;52.13;30.50;;;;;;;11.23;100.00;67310.38;5070473;28;20040;-58
2023/05/12 00:07:34;;;;;;;46.15;27.90;;;;;;;11.22;100.00;66963.66;5072253;28;20435;-58
2023/05/12 00:09:59;;;;;;;57.97;36.25;;;;;;;11.20;100.00;66615.91;5071286;28;20086;-57
2023/05/12 00:12:25;;;;;;;59.55;36.70;;;;;;;11.21;100.00;66271.38;5071826;28;20454;-57
2023/05/12 00:14:50;;;;;;;50.35;30.80;;;;;;;11.23;100.00;66273.50;5070057;28;20048;-58
2023/05/12 00:17:16;;;;;;;43.78;28.50;;;;;;;11.10;100.00;65914.75;5072289;28;20074;-57
2023/05/12 00:19:42;;;;;;;44.78;28.02;;;;;;;11.22;100.00;65581.34;5065809;28;20045;-57
2023/05/12 00:22:09;;;;;;;47.63;27.38;;;;;;;11.23;100.00;65582.41;5072319;28;20051;-57
2023/05/12 00:24:34;;;;;;;45.50;28.73;;;;;;;11.23;100.00;65237.41;5070380;28;20067;-57
2023/05/12 00:27:00;;;;;;;48.20;28.60;;;;;;;11.16;100.00;64884.16;5071912;28;20079;-57
2023/05/12 00:29:25;;;;;;;51.50;30.08;;;;;;;11.24;100.00;64547.00;5070608;28;20411;-57
2023/05/12 00:31:51;;;;;;;53.30;31.33;;;;;;;11.27;100.00;64550.59;5072152;28;20024;-58
2023/05/12 00:34:16;;;;;;;56.70;31.45;;;;;;;11.30;100.00;63862.31;5070160;28;20037;-58
2023/05/12 00:36:41;;;;;;;63.25;35.50;;;;;;;11.31;100.00;63863.31;5071402;28;20040;-58
2023/05/12 00:39:07;;;;;;;61.80;38.70;;;;;;;11.30;100.00;63516.91;5070482;28;20067;-57
2023/05/12 00:41:32;;;;;;;69.80;34.70;;;;;;;11.35;100.00;63521.47;5071363;28;20593;-57
2023/05/12 00:43:57;;;;;;;60.10;34.85;;;;;;;11.33;100.00;63174.06;5070131;28;20399;-59
2023/05/12 00:46:23;;;;;;;66.22;35.92;;;;;;;11.27;100.00;63169.03;5071616;28;20024;-58
2023/05/12 00:48:49;;;;;;;69.13;37.53;;;;;;;11.32;100.00;63173.56;5068351;28;20040;-58
2023/05/12 00:51:15;;;;;;;71.05;38.30;;;;;;;11.34;100.00;62830.22;5071902;28;20024;-59
2023/05/12 00:53:42;;;;;;;82.78;46.10;;;;;;;11.34;100.00;62830.22;5067250;28;20033;-59
2023/05/12 00:56:08;;;;;;;77.53;46.47;;;;;;;11.35;100.00;62485.88;5070991;28;20394;-58
2023/05/12 00:58:33;;;;;;;78.60;43.90;;;;;;;11.35;100.00;62485.88;5071346;28;20157;-58
2023/05/12 01:00:59;;;;;;;69.57;38.15;;;;;;;11.36;100.00;62486.88;5070013;28;20056;-58
2023/05/12 01:03:24;;;;;;;75.68;38.55;;;;;;;11.35;100.00;62485.38;5070955;28;20028;-58
2023/05/12 01:06:04;;;;;;;68.70;39.45;;;;;;;11.34;100.00;62139.59;5070129;28;20102;-59
2023/05/12 01:08:30;;;;;;;79.63;44.85;;;;;;;11.34;100.00;62139.09;5071439;28;20031;-58
2023/05/12 01:10:56;;;;;;;82.00;46.28;;;;;;;11.35;100.00;61794.81;5069102;28;20222;-58
2023/05/12 01:13:21;;;;;;;79.65;42.78;;;;;;;11.37;100.00;61452.00;5070971;28;20036;-58
2023/05/12 01:15:47;;;;;;;79.47;40.00;;;;;;;11.39;100.00;61108.72;5069507;28;20033;-58
2023/05/12 01:18:14;;;;;;;86.97;41.35;;;;;;;11.38;100.00;61107.75;5070681;28;20046;-59
2023/05/12 01:20:42;;;;;;;94.75;49.92;;;;;;;11.39;100.00;60763.53;5069439;28;20517;-58
2023/05/12 01:23:08;;;;;;;90.15;40.90;;;;;;;11.40;100.00;60764.50;5071430;28;20017;-58
2023/05/12 01:25:36;;;;;;;98.22;51.25;;;;;;;11.41;100.00;60420.28;5068865;28;20047;-58
2023/05/12 01:28:02;;;;;;;96.90;48.90;;;;;;;11.42;100.00;60075.59;5071146;28;20115;-58
2023/05/12 01:30:28;;;;;;;104.32;46.88;;;;;;;11.41;100.00;59729.97;5069499;28;20028;-59
2023/05/12 01:32:54;;;;;;;87.45;41.90;;;;;;;11.40;100.00;59729.03;5070485;28;20035;-59
2023/05/12 01:35:19;;;;;;;98.32;53.58;;;;;;;11.45;100.00;59042.63;5069271;28;20040;-58
2023/05/12 01:37:45;;;;;;;85.65;44.30;;;;;;;11.47;100.00;59044.97;5070727;28;20024;-58
2023/05/12 01:40:10;;;;;;;100.63;50.80;;;;;;;11.50;100.00;58702.25;5069229;28;20045;-59
2023/05/12 01:42:39;;;;;;;92.47;44.75;;;;;;;11.50;100.00;58357.63;5070969;28;20032;-58
2023/05/12 01:45:04;;;;;;;94.03;46.20;;;;;;;11.51;100.00;58358.09;5069446;28;20124;-58
2023/05/12 01:47:30;;;;;;;91.15;47.22;;;;;;;11.52;100.00;58014.00;5069995;28;20119;-59
2023/05/12 01:49:55;;;;;;;100.78;52.88;;;;;;;11.53;100.00;57670.38;5069528;28;20040;-58
2023/05/12 01:52:21;;;;;;;107.10;55.42;;;;;;;11.56;100.00;57327.66;5070905;28;20382;-58
2023/05/12 01:54:46;;;;;;;93.90;49.97;;;;;;;11.54;100.00;57325.81;5068829;28;20040;-58
2023/05/12 01:57:12;;;;;;;93.57;48.08;;;;;;;11.60;100.00;57331.28;5070788;28;20016;-58
2023/05/12 01:59:37;;;;;;;103.53;48.25;;;;;;;11.59;100.00;56985.38;5068904;28;20041;-58
2023/05/12 02:02:02;;;;;;;104.88;48.80;;;;;;;11.61;100.00;56987.19;5070650;28;20044;-58
2023/05/12 02:04:28;;;;;;;101.82;51.35;;;;;;;11.61;100.00;56987.19;5068719;28;20392;-57
2023/05/12 02:06:53;;;;;;;101.85;53.13;;;;;;;11.62;100.00;56642.66;5070520;28;20028;-58
2023/05/12 02:09:20;;;;;;;102.22;51.00;;;;;;;11.61;100.00;56642.22;5068873;28;20491;-58
2023/05/12 02:11:45;;;;;;;108.60;54.33;;;;;;;11.63;100.00;56644.03;5069646;28;20028;-58
2023/05/12 02:14:10;;;;;;;101.25;52.45;;;;;;;11.65;100.00;56645.84;5069272;28;20040;-58
2023/05/12 02:16:36;;;;;;;109.03;49.50;;;;;;;11.67;100.00;56647.19;5070179;28;20085;-58
2023/05/12 02:19:01;;;;;;;104.25;49.03;;;;;;;11.66;100.00;56646.72;5068831;28;20041;-58
2023/05/12 02:21:26;;;;;;;95.25;50.42;;;;;;;11.66;100.00;56646.72;5070247;28;20044;-58
2023/05/12 02:23:52;;;;;;;101.70;58.28;;;;;;;11.66;100.00;56646.72;5069073;28;20048;-58
2023/05/12 02:26:18;;;;;;;118.80;65.93;;;;;;;11.67;100.00;56647.19;5070142;28;20082;-57
2023/05/12 02:28:43;;;;;;;117.82;60.30;;;;;;;11.67;100.00;56647.63;5068880;28;20032;-60
2023/05/12 02:31:09;;;;;;;108.43;55.70;;;;;;;11.68;100.00;56648.53;5070548;28;20020;-59
2023/05/12 02:33:34;;;;;;;102.68;54.40;;;;;;;11.68;100.00;56648.53;5068161;28;20039;-59
2023/05/12 02:35:59;;;;;;;96.60;51.47;;;;;;;11.67;100.00;56647.63;5070358;28;20046;-60
2023/05/12 02:38:25;;;;;;;96.28;50.15;;;;;;;11.67;100.00;56647.19;5072267;28;20479;-58
2023/05/12 02:40:50;;;;;;;107.72;55.92;;;;;;;11.65;100.00;56645.84;5072567;28;20059;-58
2023/05/12 02:43:15;;;;;;;108.90;58.80;;;;;;;11.65;100.00;56300.88;5073692;28;20035;-59
2023/05/12 02:45:41;;;;;;;106.38;56.00;;;;;;;11.66;100.00;56301.75;5072525;28;20040;-59
2023/05/12 02:48:06;;;;;;;110.18;58.15;;;;;;;11.67;100.00;56302.22;5073615;28;20028;-59
2023/05/12 02:50:31;;;;;;;105.18;53.03;;;;;;;11.60;100.00;56296.41;5072232;28;20414;-60
2023/05/12 02:52:57;;;;;;;111.18;56.45;;;;;;;11.62;100.00;56298.19;5073980;28;20115;-58
2023/05/12 02:55:22;;;;;;;104.97;53.72;;;;;;;11.63;100.00;56298.63;5071672;28;20049;-59
2023/05/12 02:57:48;;;;;;;105.40;59.67;;;;;;;11.62;100.00;56298.19;5073933;28;20387;-59
2023/05/12 03:00:13;;;;;;;109.10;58.00;;;;;;;11.59;100.00;56295.50;5072253;28;20109;-58
2023/05/12 03:02:39;;;;;;;112.07;56.72;;;;;;;11.60;100.00;55951.50;5072852;28;20033;-58
2023/05/12 03:05:05;;;;;;;110.20;51.70;;;;;;;11.55;100.00;56292.38;5072269;28;20043;-58
2023/05/12 03:07:30;;;;;;;103.00;54.10;;;;;;;11.62;100.00;55952.81;5073662;28;20463;-58
2023/05/12 03:09:56;;;;;;;113.32;52.30;;;;;;;11.61;100.00;55951.94;5067767;28;20119;-59
2023/05/12 03:12:22;;;;;;;111.22;55.40;;;;;;;11.53;100.00;55945.28;5073094;28;20028;-60
2023/05/12 03:14:47;;;;;;;112.30;56.55;;;;;;;11.61;100.00;55607.50;5072080;28;20403;-60
2023/05/12 03:17:12;;;;;;;120.70;60.58;;;;;;;11.63;100.00;55608.81;5073399;28;20020;-59
2023/05/12 03:19:38;;;;;;;112.47;57.22;;;;;;;11.56;100.00;55258.72;5071759;28;20542;-60
2023/05/12 03:22:03;;;;;;;114.95;55.75;;;;;;;11.63;100.00;55264.41;5073512;28;20017;-59
2023/05/12 03:24:29;;;;;;;112.57;54.17;;;;;;;11.66;100.00;54922.19;5071512;28;20032;-60
2023/05/12 03:26:54;;;;;;;108.65;57.05;;;;;;;11.67;100.00;54578.22;5072936;28;20031;-59
2023/05/12 03:29:20;;;;;;;117.15;54.47;;;;;;;11.65;100.00;54576.50;5072120;28;20055;-60
2023/05/12 03:31:45;;;;;;;111.68;55.70;;;;;;;11.66;100.00;54576.94;5072647;28;20077;-60
2023/05/12 03:34:11;;;;;;;117.25;59.80;;;;;;;11.65;100.00;54576.50;5071544;28;20036;-60
2023/05/12 03:36:36;;;;;;;112.00;59.45;;;;;;;11.67;100.00;54233.44;5072897;28;20086;-59
2023/05/12 03:39:02;;;;;;;112.43;54.88;;;;;;;11.69;100.00;54235.16;5071069;28;20040;-59
2023/05/12 03:41:27;;;;;;;114.18;58.65;;;;;;;11.70;100.00;54236.00;5072844;28;20032;-59
2023/05/12 03:43:53;;;;;;;118.57;58.05;;;;;;;11.73;100.00;54238.59;5071791;28;20036;-59
2023/05/12 03:46:18;;;;;;;114.60;58.38;;;;;;;11.75;100.00;53895.50;5072639;28;20017;-59
2023/05/12 03:48:44;;;;;;;103.97;54.47;;;;;;;11.78;100.00;53897.22;5071210;28;20013;-59
2023/05/12 03:51:09;;;;;;;108.70;59.00;;;;;;;11.78;100.00;53897.22;5073022;28;20026;-59
2023/05/12 03:53:34;;;;;;;98.95;55.03;;;;;;;11.79;100.00;53553.25;5070622;28;20036;-58
2023/05/12 03:56:04;;;;;;;101.40;55.90;;;;;;;11.81;100.00;53554.94;5072897;28;20028;-59
2023/05/12 03:58:29;;;;;;;93.50;50.83;;;;;;;11.83;100.00;53556.66;5071048;28;20111;-56
2023/05/12 04:01:00;;;;;;;109.35;55.55;;;;;;;11.85;100.00;53213.53;5071998;28;20149;-59
2023/05/12 04:03:26;;;;;;;101.50;52.10;;;;;;;11.87;100.00;53215.22;5072549;28;20065;-58
2023/05/12 04:05:57;;;;;;;107.82;55.05;;;;;;;11.91;100.00;52873.78;5071275;28;20107;-58
2023/05/12 04:08:22;;;;;;;98.43;53.03;;;;;;;11.95;100.00;52877.13;5072006;28;20031;-58
2023/05/12 04:10:47;;;;;;;99.60;50.97;;;;;;;11.91;100.00;52874.19;5071134;28;20048;-60
2023/05/12 04:13:13;;;;;;;113.20;60.03;;;;;;;11.97;100.00;52533.59;5071778;28;20025;-58
2023/05/12 04:15:38;;;;;;;99.95;52.72;;;;;;;12.01;100.00;52537.34;5069854;28;20380;-58
2023/05/12 04:18:04;;;;;;;98.60;53.15;;;;;;;12.06;100.00;52196.66;5072415;28;20016;-57
2023/05/12 04:20:29;;;;;;;103.28;53.88;;;;;;;12.09;100.00;52198.31;5069917;28;20521;-57
2023/05/12 04:22:55;;;;;;;105.50;52.55;;;;;;;12.10;100.00;52199.13;5071896;28;20017;-58
2023/05/12 04:25:20;;;;;;;105.10;54.35;;;;;;;12.12;100.00;51856.34;5070740;28;20044;-58
2023/05/12 04:27:46;;;;;;;90.13;48.13;;;;;;;12.11;100.00;52200.34;5071796;28;20028;-58
2023/05/12 04:30:11;;;;;;;91.75;49.33;;;;;;;12.14;100.00;51857.56;5068159;28;20097;-58
2023/05/12 04:32:37;;;;;;;90.05;52.90;;;;;;;12.19;100.00;51861.66;5071658;28;20463;-58
2023/05/12 04:35:02;;;;;;;100.90;51.55;;;;;;;12.12;100.00;52546.06;5070077;28;20053;-57
2023/05/12 04:37:27;;;;;;;92.30;51.42;;;;;;;12.14;100.00;52547.28;5071590;28;20048;-57
2023/05/12 04:39:53;;;;;;;85.07;49.08;;;;;;;12.21;100.00;52553.09;5069691;28;20044;-57
2023/05/12 04:42:18;;;;;;;87.57;53.88;;;;;;;12.24;100.00;52900.13;5071895;28;20032;-57
2023/05/12 04:44:45;;;;;;;82.28;45.85;;;;;;;12.22;100.00;53243.84;5070301;28;20047;-57
2023/05/12 04:47:11;;;;;;;91.95;49.03;;;;;;;12.28;100.00;53593.53;5071465;28;20020;-58
2023/05/12 04:49:36;;;;;;;85.97;50.85;;;;;;;12.28;100.00;53939.03;5070093;28;20047;-58
2023/05/12 04:52:02;;;;;;;82.28;48.45;;;;;;;12.35;100.00;53944.56;5071850;28;20479;-58
2023/05/12 04:54:28;;;;;;;107.15;51.65;;;;;;;12.38;100.00;54637.91;5069706;28;20052;-58
2023/05/12 04:56:53;;;;;;;81.78;46.22;;;;;;;12.40;100.00;54984.00;5071485;28;20463;-58
2023/05/12 04:59:18;;;;;;;80.82;49.63;;;;;;;12.43;100.00;55677.63;5070220;28;20037;-58
2023/05/12 05:01:44;;;;;;;78.40;49.28;;;;;;;12.49;100.00;56027.84;5070095;28;20040;-58
2023/05/12 05:04:09;;;;;;;82.60;45.30;;;;;;;12.48;100.00;56717.75;5070118;28;20477;-57
2023/05/12 05:06:34;;;;;;;75.40;48.45;;;;;;;12.52;100.00;57757.88;5071327;28;20033;-57
2023/05/12 05:09:00;;;;;;;67.53;43.55;;;;;;;12.56;100.00;58452.28;5069756;28;20048;-58
2023/05/12 05:11:25;;;;;;;64.95;44.13;;;;;;;12.58;100.00;59491.22;5071018;28;20043;-57
2023/05/12 05:13:51;;;;;;;69.22;41.75;;;;;;;12.65;100.00;60535.75;5070136;28;20033;-58
2023/05/12 05:16:16;;;;;;;65.32;42.75;;;;;;;12.70;100.00;61578.38;5071014;28;20028;-58
2023/05/12 05:18:45;;;;;;;68.82;44.55;;;;;;;12.69;100.00;63307.69;5069455;28;20028;-58
2023/05/12 05:21:10;;;;;;;;;;;;;;;12.74;100.00;64696.56;5071791;28;20544;-58
2023/05/12 05:23:35;;;;;;;64.35;40.55;;;;;;;12.76;100.00;66776.88;5069410;28;19908;-58
2023/05/12 05:26:01;;;;;;;53.75;38.95;;;;;;;12.77;100.00;68857.31;5071211;28;20328;-57
2023/05/12 05:28:26;;;;;;;59.83;40.33;;;;;;;12.79;100.00;71286.88;5070956;28;20023;-58
2023/05/12 05:30:52;;;;;;;59.67;38.30;;;;;;;12.82;100.00;73372.22;5069273;28;20041;-58
2023/05/12 05:33:17;;;;;;;59.97;40.33;;;;;;;12.94;100.00;74775.13;5070895;28;20024;-58
2023/05/12 05:35:43;;;;;;;53.83;40.40;;;;;;;12.97;100.00;76862.94;5069549;28;20040;-58
2023/05/12 05:38:08;;;;;;;46.63;34.83;;;;;;;12.93;100.00;80333.88;5070886;28;20028;-57
2023/05/12 05:40:33;;;;;;;50.53;36.17;;;;;;;12.93;100.00;84508.22;5069355;28;20098;-57
2023/05/12 05:42:59;;;;;;;47.67;34.70;;;;;;;12.92;100.00;89035.28;5070922;28;20028;-58
2023/05/12 05:45:25;;;;;;;46.42;34.30;;;;;;;12.97;100.00;93924.66;5068882;28;20040;-58
2023/05/12 05:47:51;;;;;;;51.17;35.13;;;;;;;13.09;100.00;98131.53;5070753;28;20069;-57
2023/05/12 05:50:17;;;;;;;53.00;37.35;;;;;;;13.17;100.00;101989.59;5069562;28;20040;-58
2023/05/12 05:52:42;;;;;;;41.00;33.47;;;;;;;13.15;100.00;107235.59;5070587;28;20078;-57
2023/05/12 05:55:08;;;;;;;45.85;33.60;;;;;;;13.28;100.00;111462.63;5068213;28;20064;-58
2023/05/12 05:57:33;;;;;;;40.95;32.70;;;;;;;13.27;100.00;116724.34;5069498;28;20111;-57
2023/05/12 05:59:59;;;;;;;40.67;32.08;;;;;;;13.30;100.00;122350.25;5068345;28;20094;-58
2023/05/12 06:02:24;;;;;;;48.22;32.47;;;;;;;13.31;100.00;129038.56;5069815;28;20036;-57
2023/05/12 06:04:51;;;;;;;39.70;29.00;;;;;;;13.31;100.00;135382.06;5068172;28;20097;-57
2023/05/12 06:07:16;;;;;;;34.50;30.25;;;;;;;13.39;100.00;141751.69;5069913;28;20056;-57
2023/05/12 06:09:42;;;;;;;41.53;30.92;;;;;;;13.49;100.00;145310.97;5068134;28;20041;-58
2023/05/12 06:12:07;;;;;;;40.38;27.88;;;;;;;13.59;100.00;147456.31;5070600;28;20024;-57
2023/05/12 06:14:32;;;;;;;32.25;27.70;;;;;;;13.67;100.00;150659.75;5072388;28;20507;-58
2023/05/12 06:16:58;;;;;;;32.22;25.83;;;;;;;13.69;100.00;158148.44;5074653;28;20021;-58
2023/05/12 06:19:23;;;;;;;37.70;25.50;;;;;;;13.67;100.00;164138.00;5065232;28;20056;-58
2023/05/12 06:21:50;;;;;;;32.13;25.83;;;;;;;13.83;100.00;164179.97;5069506;28;20024;-57
2023/05/12 06:24:15;;;;;;;32.85;26.17;;;;;;;13.86;100.00;164188.06;5073008;28;20394;-58
2023/05/12 06:26:41;;;;;;;32.00;24.85;;;;;;;14.02;100.00;164230.03;5074390;28;20024;-58
2023/05/12 06:29:07;;;;;;;27.60;22.50;;;;;;;14.14;100.00;164261.13;5072301;28;20572;-57
2023/05/12 06:31:32;;;;;;;30.20;23.10;;;;;;;14.29;100.00;164301.72;5074032;28;20024;-57
2023/05/12 06:33:57;;;;;;;26.77;23.08;;;;;;;14.41;100.00;164332.78;5073037;28;20040;-58
2023/05/12 06:36:23;;;;;;;24.52;20.70;;;;;;;14.60;100.00;164384.25;5073705;28;20032;-57
2023/05/12 06:38:49;;;;;;;25.92;21.15;;;;;;;14.68;100.00;164404.56;5073016;28;20024;-57
2023/05/12 06:41:15;;;;;;;22.73;20.30;;;;;;;14.90;100.00;164462.78;5074428;28;20021;-58
2023/05/12 06:43:41;;;;;;;23.95;20.33;;;;;;;15.05;100.00;164502.00;5072038;28;20035;-58
2023/05/12 06:46:07;;;;;;;21.85;19.35;;;;;;;15.12;100.00;164518.22;5073580;28;20511;-60
2023/05/12 06:48:32;;;;;;;20.15;17.92;;;;;;;15.22;100.00;164546.72;5071691;28;20074;-56
2023/05/12 06:50:58;;;;;;;19.98;17.92;;;;;;;15.43;100.00;164599.47;5073745;28;20028;-57
2023/05/12 06:53:23;;;;;;;18.30;15.88;;;;;;;15.77;100.00;164690.16;5073599;28;20078;-57
2023/05/12 06:55:49;;;;;;;17.17;14.40;;;;;;;16.14;100.00;164786.38;5072632;28;20097;-57
2023/05/12 06:58:15;;;;;;;16.48;14.68;;;;;;;16.42;100.00;164860.84;5074040;28;20103;-57
2023/05/12 07:00:40;;;;;;;15.93;14.30;;;;;;;16.34;100.00;164839.22;5071860;28;20139;-58
2023/05/12 07:03:08;;;;;;;18.15;13.82;;;;;;;16.26;100.00;164817.53;5072673;28;20031;-57
2023/05/12 07:05:34;;;;;;;15.55;11.57;;;;;;;16.31;100.00;164831.06;5070653;28;20049;-57
2023/05/12 07:07:59;;;;;;;14.00;12.38;;;;;;;16.28;100.00;164822.91;5072984;28;20476;-57
2023/05/12 07:10:25;;;;;;;16.95;11.95;;;;;;;16.27;100.00;164820.25;5071776;28;20051;-58
2023/05/12 07:12:50;;;;;;;14.70;12.85;;;;;;;16.08;100.00;164771.47;5073627;28;20036;-57
2023/05/12 07:15:15;;;;;;;14.48;11.70;;;;;;;15.78;100.00;164692.88;5071245;28;20429;-57
2023/05/12 07:17:41;;;;;;;9.95;8.98;;;;;;;15.80;100.00;164698.31;5073332;28;20032;-57
2023/05/12 07:20:07;;;;;;;12.23;10.60;;;;;;;15.89;100.00;164720.03;5071776;28;20040;-57
2023/05/12 07:22:33;;;;;;;12.02;10.07;;;;;;;15.91;100.00;164726.81;5072610;28;20044;-57
2023/05/12 07:24:58;;;;;;;10.77;9.77;;;;;;;16.02;100.00;164755.22;5071296;28;20044;-57
2023/05/12 07:27:23;;;;;;;11.85;10.43;;;;;;;16.00;100.00;164751.19;5073026;28;20063;-57
2023/05/12 07:29:49;;;;;;;10.02;9.02;;;;;;;16.04;100.00;164760.66;5071545;28;20506;-57
2023/05/12 07:32:14;;;;;;;10.45;9.35;;;;;;;16.08;100.00;164771.47;5068481;28;20031;-57
2023/05/12 07:34:40;;;;;;;11.18;10.13;;;;;;;16.14;100.00;164786.38;5070485;28;20140;-57
2023/05/12 07:37:05;;;;;;;14.75;9.43;;;;;;;16.17;100.00;164795.88;5072747;28;20050;-57
2023/05/12 07:39:31;;;;;;;10.77;9.65;;;;;;;16.28;100.00;164822.91;5067240;28;20790;-57
2023/05/12 07:41:57;;;;;;;11.68;9.18;;;;;;;16.36;100.00;164843.25;5067147;28;20513;-57
2023/05/12 07:44:22;;;;;;;10.02;8.75;;;;;;;16.43;100.00;164863.56;5070543;28;20036;-57
2023/05/12 07:46:48;;;;;;;10.93;8.48;;;;;;;16.56;100.00;164897.44;5072920;28;20360;-57
2023/05/12 07:49:13;;;;;;;8.30;7.50;;;;;;;16.74;100.00;164944.84;5071185;28;20047;-57
2023/05/12 07:51:38;;;;;;;7.93;6.85;;;;;;;16.94;100.00;164996.41;5072500;28;20020;-57
2023/05/12 07:54:05;;;;;;;8.02;7.22;;;;;;;17.15;100.00;165051.94;5070472;28;20567;-57
2023/05/12 07:56:30;;;;;;;13.40;7.80;;;;;;;17.03;100.00;165020.75;5072484;28;20536;-57
2023/05/12 07:58:56;;;;;;;7.82;7.13;;;;;;;16.93;100.00;164993.69;5071435;28;20044;-57
2023/05/12 08:01:21;;;;;;;7.32;6.65;;;;;;;16.97;100.00;165004.50;5072581;28;20499;-57
2023/05/12 08:03:47;;;;;;;10.07;7.75;;;;;;;16.99;100.00;165008.56;5071210;28;20028;-57
2023/05/12 08:06:12;;;;;;;7.13;6.43;;;;;;;16.92;100.00;164990.94;5072568;28;20012;-57
2023/05/12 08:08:37;;;;;;;6.95;6.35;;;;;;;16.98;100.00;165007.22;5070654;28;20036;-57
2023/05/12 08:11:03;;;;;;;6.03;5.53;;;;;;;17.11;100.00;165041.13;5072538;28;20025;-57
2023/05/12 08:13:28;;;;;;;6.18;5.57;;;;;;;17.35;100.00;165103.47;5072040;28;20028;-57
2023/05/12 08:15:54;;;;;;;11.60;6.38;;;;;;;17.36;100.00;165107.50;5071060;28;20062;-57
2023/05/12 08:18:19;;;;;;;6.10;4.65;;;;;;;17.32;100.00;165096.63;5072694;28;20475;-56
2023/05/12 08:20:46;;;;;;;5.20;4.75;;;;;;;17.51;100.00;165146.78;5070451;28;20051;-57
2023/05/12 08:23:12;;;;;;;6.35;5.75;;;;;;;17.47;100.00;165135.97;5072198;28;20074;-57
2023/05/12 08:25:37;;;;;;;4.80;3.95;;;;;;;17.57;100.00;165161.72;5070888;28;20040;-57
2023/05/12 08:28:03;;;;;;;5.07;4.55;;;;;;;17.64;100.00;165179.34;5071839;28;20032;-57
2023/05/12 08:30:28;;;;;;;4.00;3.70;;;;;;;17.74;100.00;165206.44;5070616;28;20040;-57
2023/05/12 08:32:55;;;;;;;5.85;5.25;;;;;;;17.82;100.00;165226.78;5072377;28;20024;-57
2023/05/12 08:35:21;;;;;;;5.10;4.70;;;;;;;18.12;100.00;165305.47;5069418;28;20068;-57
2023/05/12 08:37:46;;;;;;;5.55;5.05;;;;;;;18.27;100.00;165346.16;5071833;28;20372;-57
2023/05/12 08:40:18;;;;;;;4.50;3.85;;;;;;;18.54;100.00;165416.63;5070601;28;20036;-57
2023/05/12 08:42:50;;;;;;;4.60;3.90;;;;;;;18.66;100.00;165447.84;5071464;28;20067;-57
2023/05/12 08:45:15;;;;;;;4.95;3.97;;;;;;;19.04;100.00;165548.25;5070527;28;20040;-57
2023/05/12 08:47:42;;;;;;;3.95;3.47;;;;;;;19.30;100.00;165617.44;5071468;28;20472;-57
2023/05/12 08:50:08;;;;;;;4.00;3.60;;;;;;;19.65;100.00;165709.69;5070035;28;20127;-57
2023/05/12 08:52:35;;;;;;;4.78;4.38;;;;;;;19.37;100.00;165635.03;5071362;28;20023;-57
2023/05/12 08:55:02;;;;;;;4.53;4.13;;;;;;;19.54;100.00;165679.84;5070243;28;20488;-57
2023/05/12 08:57:28;;;;;;;3.90;3.45;;;;;;;19.34;100.00;165628.28;5071475;28;20028;-57
2023/05/12 08:59:55;;;;;;;5.07;4.05;;;;;;;19.43;100.00;165649.97;5069923;28;20407;-57
2023/05/12 09:02:23;;;;;;;3.08;2.88;;;;;;;19.09;100.00;165561.81;5071754;28;20429;-57
2023/05/12 09:04:50;;;;;;;4.32;3.92;;;;;;;19.13;100.00;165572.69;5069812;28;20041;-57
2023/05/12 09:07:17;;;;;;;3.85;3.55;;;;;;;19.45;100.00;165655.44;5071508;28;20060;-57
2023/05/12 09:09:45;;;;;;;3.80;3.47;;;;;;;19.54;100.00;165679.84;5069634;28;20047;-57
2023/05/12 09:12:11;;;;;;;;;;;;;;;19.94;100.00;165784.38;5071519;28;20036;-57
2023/05/12 09:14:39;;;;;;;6.80;3.35;;;;;;;19.53;100.00;165677.13;5069292;28;20290;-58
2023/05/12 09:17:05;;;;;;;5.20;3.67;;;;;;;19.86;100.00;165762.66;5071154;28;20091;-57
2023/05/12 09:19:31;;;;;;;3.85;3.50;;;;;;;19.89;100.00;165772.16;5069275;28;20446;-58
2023/05/12 09:21:57;;;;;;;2.80;2.60;;;;;;;19.91;100.00;165777.63;5070905;28;20027;-58
2023/05/12 09:24:33;;;;;;;6.97;3.00;;;;;;;20.15;100.00;165840.00;5069521;28;20074;-58
2023/05/12 09:26:59;;;;;;;6.70;3.47;;;;;;;20.00;100.00;165799.28;5070739;28;20100;-57
2023/05/12 09:29:24;;;;;;;3.70;3.40;;;;;;;20.04;100.00;165810.16;5069459;28;20510;-57
2023/05/12 09:31:51;;;;;;;5.43;3.25;;;;;;;20.10;100.00;165826.44;5068282;28;20043;-57
2023/05/12 09:34:17;;;;;;;6.55;3.47;;;;;;;20.47;100.00;165924.16;5068179;28;20032;-58
2023/05/12 09:36:42;;;;;;;6.55;3.95;;;;;;;20.29;100.00;165878.00;5065002;28;20563;-57
2023/05/12 09:39:09;;;;;;;5.15;3.20;;;;;;;20.24;100.00;165864.44;5067797;28;20047;-58
2023/05/12 09:41:38;;;;;;;5.18;3.38;;;;;;;20.29;100.00;165876.66;5067039;28;20020;-57
2023/05/12 09:44:05;;;;;;;6.88;3.42;;;;;;;20.40;100.00;165905.16;5066714;28;20032;-58
2023/05/12 09:46:31;;;;;;;5.50;3.05;;;;;;;20.26;100.00;165869.88;5069961;28;20028;-57
2023/05/12 09:48:57;;;;;;;3.30;3.08;;;;;;;20.39;100.00;165903.84;5069234;28;20043;-57
2023/05/12 09:51:23;;;;;;;3.25;2.85;;;;;;;20.47;100.00;165924.16;5070835;28;20016;-57
2023/05/12 09:53:48;;;;;;;3.05;2.80;;;;;;;20.32;100.00;165883.44;5068995;28;20099;-58
2023/05/12 09:56:15;;;;;;;2.78;2.58;;;;;;;20.22;100.00;165859.00;5070343;28;20043;-57
2023/05/12 09:58:46;;;;;;;7.35;3.92;;;;;;;20.59;100.00;165956.72;5069188;28;20103;-57
2023/05/12 10:01:14;;;;;;;4.28;3.45;;;;;;;20.68;100.00;165978.47;5070704;28;20052;-57
2023/05/12 10:03:41;;;;;;;4.35;2.95;;;;;;;20.64;100.00;165967.63;5068647;28;20032;-57
2023/05/12 10:06:10;;;;;;;3.30;3.05;;;;;;;20.54;100.00;165941.84;5070592;28;20417;-58
2023/05/12 10:08:50;;;;;;;9.60;3.28;;;;;;;20.48;100.00;165926.91;5068924;28;20059;-57
2023/05/12 10:11:16;;;;;;;2.78;2.58;;;;;;;20.60;100.00;165958.13;5070288;28;20030;-57
2023/05/12 10:13:42;;;;;;;5.60;2.65;;;;;;;20.47;100.00;165922.84;5068788;28;20158;-57
2023/05/12 10:16:08;;;;;;;3.35;2.53;;;;;;;20.56;100.00;165948.63;5069596;28;20488;-57
2023/05/12 10:18:34;;;;;;;8.77;3.38;;;;;;;20.58;100.00;165954.06;5067388;28;20478;-57
2023/05/12 10:21:00;;;;;;;3.58;2.78;;;;;;;20.35;100.00;165892.94;5069539;28;20526;-58
2023/05/12 10:23:27;;;;;;;5.05;3.17;;;;;;;19.90;100.00;165774.88;5070189;28;20461;-57
2023/05/12 10:26:00;;;;;;;3.03;2.67;;;;;;;20.15;100.00;165840.00;5067686;28;20040;-57
2023/05/12 10:28:26;;;;;;;2.50;2.30;;;;;;;20.29;100.00;165876.66;5064272;28;20028;-57
2023/05/12 10:30:52;;;;;;;2.45;2.25;;;;;;;20.51;100.00;165935.06;5068781;28;20064;-57
2023/05/12 10:33:18;;;;;;;8.90;3.83;;;;;;;20.46;100.00;165921.44;5069353;28;20028;-57
2023/05/12 10:35:44;;;;;;;3.15;2.85;;;;;;;20.57;100.00;165951.34;5068253;28;20108;-57
2023/05/12 10:38:11;;;;;;;2.13;1.95;;;;;;;20.76;100.00;166000.25;5069641;28;20425;-57
2023/05/12 10:40:58;;;;;;;2.70;2.50;;;;;;;21.06;100.00;166080.38;5068198;28;20139;-58
2023/05/12 10:43:26;;;;;;;5.68;2.15;;;;;;;21.12;100.00;166095.28;5069504;28;20016;-58
2023/05/12 10:46:20;;;;;;;3.30;2.92;;;;;;;21.35;100.00;166156.41;5068206;28;20044;-57
2023/05/12 10:49:02;;;;;;;2.38;2.17;;;;;;;21.29;100.00;166138.75;5048110;28;20025;-58
2023/05/12 10:51:28;;;;;;;3.28;2.58;;;;;;;21.23;100.00;166125.19;5065134;28;20123;-57
2023/05/12 10:53:58;;;;;;;4.40;3.03;;;;;;;21.05;100.00;166076.28;5068335;28;20047;-58
2023/05/12 10:56:26;;;;;;;3.28;2.60;;;;;;;21.17;100.00;166108.91;5069157;28;20028;-57
2023/05/12 10:59:20;;;;;;;2.22;2.13;;;;;;;21.13;100.00;166098.00;5069937;28;20028;-57
2023/05/12 11:02:27;;;;;;;2.85;2.63;;;;;;;21.17;100.00;166107.50;5073416;28;20048;-58
2023/05/12 11:04:56;;;;;;;4.93;3.17;;;;;;;21.31;100.00;166144.19;5070335;28;20045;-59